sensor_id;sensor_type;location;lat;lon;timestamp;P1;durP1;ratioP1;P2;durP2;ratioP2
79454;SDS011;68900;52.134;5.420;2024-01-15T00:00:15;7.78;;;0.80;;
79454;SDS011;68900;52.134;5.420;2024-01-15T00:02:42;4.75;;;0.70;;
79454;SDS011;68900;52.134;5.420;2024-01-15T00:05:08;4.10;;;0.40;;
79454;SDS011;68900;52.134;5.420;2024-01-15T00:07:35;2.65;;;0.40;;
79454;SDS011;68900;52.134;5.420;2024-01-15T00:10:02;7.00;;;0.75;;
79454;SDS011;68900;52.134;5.420;2024-01-15T00:12:29;3.78;;;0.60;;
79454;SDS011;68900;52.134;5.420;2024-01-15T00:15:10;7.30;;;0.82;;
79454;SDS011;68900;52.134;5.420;2024-01-15T00:17:38;6.32;;;1.15;;
79454;SDS011;68900;52.134;5.420;2024-01-15T00:20:07;5.07;;;0.55;;
79454;SDS011;68900;52.134;5.420;2024-01-15T00:22:34;4.78;;;0.80;;
79454;SDS011;68900;52.134;5.420;2024-01-15T00:30:01;2.00;;;0.43;;
79454;SDS011;68900;52.134;5.420;2024-01-15T00:32:31;3.15;;;0.40;;
79454;SDS011;68900;52.134;5.420;2024-01-15T00:34:57;7.10;;;0.75;;
79454;SDS011;68900;52.134;5.420;2024-01-15T00:37:24;4.35;;;0.63;;
79454;SDS011;68900;52.134;5.420;2024-01-15T00:39:51;6.00;;;0.50;;
79454;SDS011;68900;52.134;5.420;2024-01-15T00:42:17;6.65;;;0.90;;
79454;SDS011;68900;52.134;5.420;2024-01-15T00:44:44;5.00;;;0.90;;
79454;SDS011;68900;52.134;5.420;2024-01-15T00:47:10;5.97;;;0.52;;
79454;SDS011;68900;52.134;5.420;2024-01-15T00:49:37;4.68;;;0.55;;
79454;SDS011;68900;52.134;5.420;2024-01-15T00:52:07;4.63;;;0.60;;
79454;SDS011;68900;52.134;5.420;2024-01-15T00:54:33;5.95;;;0.60;;
79454;SDS011;68900;52.134;5.420;2024-01-15T00:57:00;2.97;;;0.52;;
79454;SDS011;68900;52.134;5.420;2024-01-15T00:59:30;4.57;;;0.60;;
79454;SDS011;68900;52.134;5.420;2024-01-15T01:01:57;5.90;;;0.73;;
79454;SDS011;68900;52.134;5.420;2024-01-15T01:04:25;3.60;;;0.65;;
79454;SDS011;68900;52.134;5.420;2024-01-15T01:06:52;6.50;;;0.88;;
79454;SDS011;68900;52.134;5.420;2024-01-15T01:09:19;3.67;;;0.68;;
79454;SDS011;68900;52.134;5.420;2024-01-15T02:52:46;1.13;;;0.17;;
79454;SDS011;68900;52.134;5.420;2024-01-15T02:55:12;4.00;;;0.32;;
79454;SDS011;68900;52.134;5.420;2024-01-15T02:57:39;3.58;;;0.40;;
79454;SDS011;68900;52.134;5.420;2024-01-15T03:00:06;4.38;;;0.35;;
79454;SDS011;68900;52.134;5.420;2024-01-15T03:02:37;5.35;;;0.50;;
79454;SDS011;68900;52.134;5.420;2024-01-15T03:05:09;4.70;;;0.50;;
79454;SDS011;68900;52.134;5.420;2024-01-15T03:07:36;3.42;;;0.73;;
79454;SDS011;68900;52.134;5.420;2024-01-15T03:10:03;3.05;;;0.35;;
79454;SDS011;68900;52.134;5.420;2024-01-15T03:12:32;4.20;;;0.57;;
79454;SDS011;68900;52.134;5.420;2024-01-15T03:15:04;2.95;;;0.38;;
79454;SDS011;68900;52.134;5.420;2024-01-15T03:17:33;1.98;;;0.30;;
79454;SDS011;68900;52.134;5.420;2024-01-15T03:31:41;5.90;;;0.45;;
79454;SDS011;68900;52.134;5.420;2024-01-15T03:40:33;1.25;;;0.20;;
79454;SDS011;68900;52.134;5.420;2024-01-15T03:43:01;8.90;;;0.68;;
79454;SDS011;68900;52.134;5.420;2024-01-15T03:45:27;4.10;;;0.60;;
79454;SDS011;68900;52.134;5.420;2024-01-15T03:47:57;1.92;;;0.57;;
79454;SDS011;68900;52.134;5.420;2024-01-15T03:50:23;3.78;;;0.90;;
79454;SDS011;68900;52.134;5.420;2024-01-15T03:52:51;5.45;;;0.50;;
79454;SDS011;68900;52.134;5.420;2024-01-15T03:55:20;6.55;;;0.52;;
79454;SDS011;68900;52.134;5.420;2024-01-15T03:57:47;2.90;;;0.50;;
79454;SDS011;68900;52.134;5.420;2024-01-15T04:00:17;3.30;;;0.40;;
79454;SDS011;68900;52.134;5.420;2024-01-15T04:02:44;4.25;;;0.43;;
79454;SDS011;68900;52.134;5.420;2024-01-15T04:05:11;7.15;;;0.85;;
79454;SDS011;68900;52.134;5.420;2024-01-15T04:07:46;1.88;;;0.45;;
79454;SDS011;68900;52.134;5.420;2024-01-15T04:10:12;3.83;;;0.43;;
79454;SDS011;68900;52.134;5.420;2024-01-15T04:12:39;5.38;;;0.47;;
79454;SDS011;68900;52.134;5.420;2024-01-15T04:15:06;3.13;;;0.65;;
79454;SDS011;68900;52.134;5.420;2024-01-15T04:17:32;4.78;;;0.40;;
79454;SDS011;68900;52.134;5.420;2024-01-15T04:20:05;1.55;;;0.30;;
79454;SDS011;68900;52.134;5.420;2024-01-15T04:22:35;1.17;;;0.22;;
79454;SDS011;68900;52.134;5.420;2024-01-15T04:25:14;1.45;;;0.35;;
79454;SDS011;68900;52.134;5.420;2024-01-15T04:27:43;2.85;;;0.35;;
79454;SDS011;68900;52.134;5.420;2024-01-15T04:30:11;3.53;;;0.28;;
79454;SDS011;68900;52.134;5.420;2024-01-15T04:32:38;2.40;;;0.40;;
79454;SDS011;68900;52.134;5.420;2024-01-15T04:35:07;4.55;;;0.40;;
79454;SDS011;68900;52.134;5.420;2024-01-15T04:37:34;3.55;;;0.30;;
79454;SDS011;68900;52.134;5.420;2024-01-15T04:40:02;2.88;;;0.35;;
79454;SDS011;68900;52.134;5.420;2024-01-15T04:42:30;3.67;;;0.45;;
79454;SDS011;68900;52.134;5.420;2024-01-15T04:44:57;2.40;;;0.47;;
79454;SDS011;68900;52.134;5.420;2024-01-15T04:47:27;2.13;;;0.35;;
79454;SDS011;68900;52.134;5.420;2024-01-15T04:49:54;3.35;;;0.57;;
79454;SDS011;68900;52.134;5.420;2024-01-15T04:52:21;2.42;;;0.30;;
79454;SDS011;68900;52.134;5.420;2024-01-15T04:54:50;8.52;;;0.65;;
79454;SDS011;68900;52.134;5.420;2024-01-15T04:57:18;4.85;;;0.52;;
79454;SDS011;68900;52.134;5.420;2024-01-15T04:59:45;2.95;;;0.57;;
79454;SDS011;68900;52.134;5.420;2024-01-15T05:02:12;3.83;;;0.40;;
79454;SDS011;68900;52.134;5.420;2024-01-15T05:18:09;5.15;;;1.00;;
79454;SDS011;68900;52.134;5.420;2024-01-15T18:13:16;2.88;;;0.77;;
79454;SDS011;68900;52.134;5.420;2024-01-15T18:15:43;7.78;;;1.40;;
79454;SDS011;68900;52.134;5.420;2024-01-15T18:18:10;6.25;;;0.90;;
79454;SDS011;68900;52.134;5.420;2024-01-15T18:23:06;7.30;;;1.50;;
79454;SDS011;68900;52.134;5.420;2024-01-15T18:25:32;6.30;;;1.10;;
79454;SDS011;68900;52.134;5.420;2024-01-15T18:27:59;4.22;;;0.95;;
79454;SDS011;68900;52.134;5.420;2024-01-15T18:30:26;5.57;;;0.85;;
79454;SDS011;68900;52.134;5.420;2024-01-15T18:32:52;7.28;;;1.67;;
79454;SDS011;68900;52.134;5.420;2024-01-15T18:35:33;5.28;;;1.15;;
79454;SDS011;68900;52.134;5.420;2024-01-15T18:38:00;11.63;;;1.40;;
79454;SDS011;68900;52.134;5.420;2024-01-15T18:40:27;9.20;;;1.20;;
79454;SDS011;68900;52.134;5.420;2024-01-15T18:42:57;7.38;;;1.50;;
79454;SDS011;68900;52.134;5.420;2024-01-15T18:45:24;8.10;;;1.40;;
79454;SDS011;68900;52.134;5.420;2024-01-15T18:47:50;6.28;;;0.95;;
79454;SDS011;68900;52.134;5.420;2024-01-15T18:50:17;7.82;;;1.25;;
79454;SDS011;68900;52.134;5.420;2024-01-15T18:52:45;6.60;;;1.23;;
79454;SDS011;68900;52.134;5.420;2024-01-15T18:55:12;10.30;;;1.20;;
79454;SDS011;68900;52.134;5.420;2024-01-15T18:57:40;9.40;;;1.58;;
79454;SDS011;68900;52.134;5.420;2024-01-15T19:00:07;5.97;;;1.10;;
79454;SDS011;68900;52.134;5.420;2024-01-15T19:02:36;5.30;;;1.35;;
79454;SDS011;68900;52.134;5.420;2024-01-15T19:05:03;7.70;;;1.65;;
79454;SDS011;68900;52.134;5.420;2024-01-15T19:07:30;4.18;;;0.98;;
79454;SDS011;68900;52.134;5.420;2024-01-15T19:09:59;5.88;;;1.17;;
79454;SDS011;68900;52.134;5.420;2024-01-15T19:12:25;8.82;;;1.27;;
79454;SDS011;68900;52.134;5.420;2024-01-15T19:14:52;5.93;;;1.27;;
79454;SDS011;68900;52.134;5.420;2024-01-15T19:17:18;9.57;;;1.17;;
79454;SDS011;68900;52.134;5.420;2024-01-15T19:19:45;8.48;;;1.38;;
79454;SDS011;68900;52.134;5.420;2024-01-15T19:22:17;6.82;;;1.45;;
79454;SDS011;68900;52.134;5.420;2024-01-15T19:24:44;7.85;;;1.20;;
79454;SDS011;68900;52.134;5.420;2024-01-15T19:27:11;5.93;;;1.10;;
79454;SDS011;68900;52.134;5.420;2024-01-15T19:29:37;10.10;;;1.42;;
79454;SDS011;68900;52.134;5.420;2024-01-15T19:32:04;4.95;;;0.90;;
79454;SDS011;68900;52.134;5.420;2024-01-15T19:34:34;4.82;;;0.80;;
79454;SDS011;68900;52.134;5.420;2024-01-15T19:37:04;6.53;;;1.23;;
79454;SDS011;68900;52.134;5.420;2024-01-15T19:39:30;6.97;;;1.20;;
79454;SDS011;68900;52.134;5.420;2024-01-15T19:41:58;4.85;;;1.00;;
79454;SDS011;68900;52.134;5.420;2024-01-15T19:44:27;7.43;;;1.20;;
79454;SDS011;68900;52.134;5.420;2024-01-15T19:46:56;5.28;;;0.68;;
79454;SDS011;68900;52.134;5.420;2024-01-15T19:49:27;4.18;;;0.82;;
79454;SDS011;68900;52.134;5.420;2024-01-15T19:51:54;7.07;;;1.30;;
79454;SDS011;68900;52.134;5.420;2024-01-15T19:54:21;9.85;;;1.10;;
79454;SDS011;68900;52.134;5.420;2024-01-15T19:59:17;6.60;;;1.50;;
79454;SDS011;68900;52.134;5.420;2024-01-15T20:01:44;5.85;;;1.30;;
79454;SDS011;68900;52.134;5.420;2024-01-15T20:04:20;6.57;;;1.13;;
79454;SDS011;68900;52.134;5.420;2024-01-15T20:06:47;6.43;;;1.27;;
79454;SDS011;68900;52.134;5.420;2024-01-15T20:09:13;8.48;;;1.35;;
79454;SDS011;68900;52.134;5.420;2024-01-15T20:11:39;6.60;;;1.10;;
79454;SDS011;68900;52.134;5.420;2024-01-15T20:14:08;4.45;;;1.00;;
79454;SDS011;68900;52.134;5.420;2024-01-15T20:16:34;9.55;;;1.42;;
79454;SDS011;68900;52.134;5.420;2024-01-15T20:19:03;3.50;;;0.82;;
79454;SDS011;68900;52.134;5.420;2024-01-15T20:21:31;5.22;;;0.93;;
79454;SDS011;68900;52.134;5.420;2024-01-15T20:24:01;4.95;;;0.70;;
79454;SDS011;68900;52.134;5.420;2024-01-15T20:26:29;7.53;;;1.05;;
79454;SDS011;68900;52.134;5.420;2024-01-15T20:28:56;9.20;;;1.00;;
79454;SDS011;68900;52.134;5.420;2024-01-15T20:31:29;5.20;;;0.90;;
79454;SDS011;68900;52.134;5.420;2024-01-15T20:33:55;9.25;;;1.23;;
79454;SDS011;68900;52.134;5.420;2024-01-15T20:36:22;4.63;;;0.98;;
79454;SDS011;68900;52.134;5.420;2024-01-15T20:38:52;7.35;;;0.98;;
79454;SDS011;68900;52.134;5.420;2024-01-15T20:41:29;7.10;;;1.05;;
79454;SDS011;68900;52.134;5.420;2024-01-15T20:43:55;4.18;;;0.98;;
79454;SDS011;68900;52.134;5.420;2024-01-15T20:46:22;5.55;;;0.80;;
79454;SDS011;68900;52.134;5.420;2024-01-15T20:48:48;2.47;;;0.70;;
79454;SDS011;68900;52.134;5.420;2024-01-15T20:51:19;6.35;;;0.77;;
79454;SDS011;68900;52.134;5.420;2024-01-15T20:53:45;7.97;;;0.80;;
79454;SDS011;68900;52.134;5.420;2024-01-15T20:56:13;4.40;;;0.88;;
79454;SDS011;68900;52.134;5.420;2024-01-15T20:58:40;3.50;;;0.85;;
79454;SDS011;68900;52.134;5.420;2024-01-15T21:01:06;5.22;;;0.60;;
79454;SDS011;68900;52.134;5.420;2024-01-15T21:03:34;6.97;;;1.10;;
79454;SDS011;68900;52.134;5.420;2024-01-15T21:06:03;4.97;;;1.30;;
79454;SDS011;68900;52.134;5.420;2024-01-15T21:08:30;6.72;;;1.10;;
79454;SDS011;68900;52.134;5.420;2024-01-15T21:10:57;5.72;;;1.13;;
79454;SDS011;68900;52.134;5.420;2024-01-15T21:13:23;6.13;;;0.95;;
79454;SDS011;68900;52.134;5.420;2024-01-15T21:15:50;4.97;;;0.90;;
79454;SDS011;68900;52.134;5.420;2024-01-15T21:18:16;7.90;;;0.82;;
79454;SDS011;68900;52.134;5.420;2024-01-15T21:20:43;6.22;;;0.95;;
79454;SDS011;68900;52.134;5.420;2024-01-15T21:23:10;6.68;;;1.00;;
79454;SDS011;68900;52.134;5.420;2024-01-15T21:25:37;6.43;;;1.00;;
79454;SDS011;68900;52.134;5.420;2024-01-15T21:28:04;14.05;;;1.60;;
79454;SDS011;68900;52.134;5.420;2024-01-15T21:30:31;8.18;;;1.45;;
79454;SDS011;68900;52.134;5.420;2024-01-15T21:33:01;7.22;;;1.33;;
79454;SDS011;68900;52.134;5.420;2024-01-15T21:38:00;6.40;;;1.17;;
79454;SDS011;68900;52.134;5.420;2024-01-15T21:40:26;5.43;;;0.88;;
79454;SDS011;68900;52.134;5.420;2024-01-15T21:42:53;8.35;;;1.20;;
79454;SDS011;68900;52.134;5.420;2024-01-15T21:45:20;4.13;;;0.90;;
79454;SDS011;68900;52.134;5.420;2024-01-15T21:47:47;4.82;;;1.40;;
79454;SDS011;68900;52.134;5.420;2024-01-15T21:50:17;5.18;;;1.00;;
79454;SDS011;68900;52.134;5.420;2024-01-15T21:52:43;4.15;;;0.85;;
79454;SDS011;68900;52.134;5.420;2024-01-15T21:55:10;6.78;;;0.98;;
79454;SDS011;68900;52.134;5.420;2024-01-15T21:57:37;5.57;;;0.90;;
79454;SDS011;68900;52.134;5.420;2024-01-15T22:00:03;9.50;;;1.10;;
79454;SDS011;68900;52.134;5.420;2024-01-15T22:02:34;5.40;;;0.90;;
79454;SDS011;68900;52.134;5.420;2024-01-15T22:05:06;5.00;;;0.68;;
79454;SDS011;68900;52.134;5.420;2024-01-15T22:07:35;2.70;;;0.60;;
79454;SDS011;68900;52.134;5.420;2024-01-15T22:10:09;4.97;;;0.80;;
79454;SDS011;68900;52.134;5.420;2024-01-15T22:12:38;5.80;;;1.10;;
79454;SDS011;68900;52.134;5.420;2024-01-15T22:15:06;4.28;;;1.00;;
79454;SDS011;68900;52.134;5.420;2024-01-15T22:17:32;7.40;;;1.17;;
79454;SDS011;68900;52.134;5.420;2024-01-15T22:20:00;7.00;;;0.90;;
79454;SDS011;68900;52.134;5.420;2024-01-15T22:22:27;8.05;;;0.95;;
79454;SDS011;68900;52.134;5.420;2024-01-15T22:25:06;3.72;;;0.70;;
79454;SDS011;68900;52.134;5.420;2024-01-15T22:27:36;5.07;;;0.82;;
79454;SDS011;68900;52.134;5.420;2024-01-15T22:30:09;4.75;;;0.98;;
79454;SDS011;68900;52.134;5.420;2024-01-15T22:32:36;11.35;;;1.52;;
79454;SDS011;68900;52.134;5.420;2024-01-15T22:35:03;5.50;;;1.00;;
79454;SDS011;68900;52.134;5.420;2024-01-15T22:37:30;3.60;;;1.02;;
79454;SDS011;68900;52.134;5.420;2024-01-15T22:39:57;6.68;;;1.08;;
79454;SDS011;68900;52.134;5.420;2024-01-15T22:42:24;4.70;;;1.10;;
79454;SDS011;68900;52.134;5.420;2024-01-15T22:44:51;4.78;;;1.10;;
79454;SDS011;68900;52.134;5.420;2024-01-15T22:47:18;3.22;;;0.82;;
79454;SDS011;68900;52.134;5.420;2024-01-15T22:49:45;6.70;;;1.25;;
79454;SDS011;68900;52.134;5.420;2024-01-15T22:52:11;7.50;;;1.08;;
79454;SDS011;68900;52.134;5.420;2024-01-15T22:54:39;6.80;;;1.10;;
79454;SDS011;68900;52.134;5.420;2024-01-15T22:57:06;3.80;;;0.77;;
79454;SDS011;68900;52.134;5.420;2024-01-15T23:00:14;3.25;;;0.80;;
79454;SDS011;68900;52.134;5.420;2024-01-15T23:02:50;5.65;;;0.80;;
79454;SDS011;68900;52.134;5.420;2024-01-15T23:05:22;6.78;;;0.80;;
79454;SDS011;68900;52.134;5.420;2024-01-15T23:07:49;7.60;;;0.90;;
79454;SDS011;68900;52.134;5.420;2024-01-15T23:10:17;4.10;;;0.73;;
79454;SDS011;68900;52.134;5.420;2024-01-15T23:12:43;9.35;;;0.93;;
79454;SDS011;68900;52.134;5.420;2024-01-15T23:15:10;7.28;;;0.88;;
79454;SDS011;68900;52.134;5.420;2024-01-15T23:17:36;6.63;;;1.08;;
79454;SDS011;68900;52.134;5.420;2024-01-15T23:20:04;7.25;;;1.08;;
79454;SDS011;68900;52.134;5.420;2024-01-15T23:22:31;5.15;;;0.93;;
79454;SDS011;68900;52.134;5.420;2024-01-15T23:24:58;7.15;;;1.27;;
79454;SDS011;68900;52.134;5.420;2024-01-15T23:27:24;4.57;;;1.00;;
79454;SDS011;68900;52.134;5.420;2024-01-15T23:29:51;6.60;;;1.10;;
79454;SDS011;68900;52.134;5.420;2024-01-15T23:32:17;6.20;;;0.77;;
79454;SDS011;68900;52.134;5.420;2024-01-15T23:34:45;4.07;;;0.73;;
79454;SDS011;68900;52.134;5.420;2024-01-15T23:37:11;4.47;;;0.63;;
79454;SDS011;68900;52.134;5.420;2024-01-15T23:39:38;3.80;;;1.10;;
79454;SDS011;68900;52.134;5.420;2024-01-15T23:42:05;6.05;;;0.63;;
79454;SDS011;68900;52.134;5.420;2024-01-15T23:44:36;5.78;;;0.80;;
79454;SDS011;68900;52.134;5.420;2024-01-15T23:49:35;5.13;;;0.80;;
79454;SDS011;68900;52.134;5.420;2024-01-15T23:52:03;4.68;;;0.82;;
79454;SDS011;68900;52.134;5.420;2024-01-15T23:54:30;3.38;;;0.77;;
79454;SDS011;68900;52.134;5.420;2024-01-15T23:56:58;6.55;;;1.30;;
79454;SDS011;68900;52.134;5.420;2024-01-15T23:59:28;5.70;;;1.20;;
